Time;durP1;ratioP1;P1;durP2;ratioP2;P2;SDS_P1;SDS_P2;PMS_P1;PMS_P2;Temp;Humidity;BMP_temperature;BMP_pressure;BME280_temperature;BME280_humidity;BME280_pressure;Samples;Min_cycle;Max_cycle;Signal;HPM_P1;HPM_P2
2024/02/22 00:00:56;;;;;;;5.13;3.07;;;8.90;99.90;;;;;;4988646;28;20220;-81
2024/02/22 00:03:24;;;;;;;7.43;2.87;;;8.90;99.90;;;;;;4992864;28;20260;-82
2024/02/22 00:05:51;;;;;;;5.93;2.97;;;8.90;99.90;;;;;;4993471;28;20238;-82
2024/02/22 00:08:18;;;;;;;4.90;2.93;;;9.00;99.90;;;;;;4987973;28;20279;-82
2024/02/22 00:10:46;;;;;;;5.27;2.70;;;8.90;1.00;;;;;;5014762;28;20215;-81
2024/02/22 00:13:13;;;;;;;3.20;2.60;;;8.80;1.00;;;;;;5001781;28;20559;-81
2024/02/22 00:15:41;;;;;;;3.43;2.73;;;8.80;1.00;;;;;;4997976;28;20221;-82
2024/02/22 00:18:07;;;;;;;6.60;2.70;;;8.80;1.00;;;;;;4997401;28;20255;-81
2024/02/22 00:20:36;;;;;;;4.57;2.70;;;8.80;1.00;;;;;;4998546;28;20641;-81
2024/02/22 00:23:05;;;;;;;4.07;3.07;;;8.70;99.90;;;;;;4998217;28;20205;-80
2024/02/22 00:25:32;;;;;;;8.73;2.70;;;8.70;99.90;;;;;;4997963;28;20197;-80
2024/02/22 00:27:59;;;;;;;5.57;2.73;;;8.70;99.90;;;;;;4998323;28;20664;-82
2024/02/22 00:30:26;;;;;;;3.60;2.80;;;8.70;99.90;;;;;;4997258;28;20272;-82
2024/02/22 00:32:53;;;;;;;7.00;3.20;;;8.80;88.60;;;;;;5000557;28;20260;-82
2024/02/22 00:35:20;;;;;;;4.07;2.83;;;8.70;99.90;;;;;;4997771;28;20605;-82
2024/02/22 00:37:48;;;;;;;6.20;3.27;;;8.80;99.90;;;;;;5006162;28;20208;-81
2024/02/22 00:40:15;;;;;;;6.20;2.90;;;8.70;99.90;;;;;;4996991;28;20221;-81
2024/02/22 00:42:42;;;;;;;5.97;2.60;;;8.70;1.00;;;;;;4978474;28;20233;-81
2024/02/22 00:45:10;;;;;;;5.37;3.00;;;8.70;99.90;;;;;;4978699;28;20257;-81
2024/02/22 00:47:37;;;;;;;3.77;2.77;;;8.70;99.90;;;;;;4980997;28;20269;-81
2024/02/22 00:50:05;;;;;;;4.63;3.20;;;8.80;99.90;;;;;;4996858;28;20688;-80
2024/02/22 00:52:32;;;;;;;6.13;3.00;;;8.70;1.00;;;;;;5012630;28;20647;-80
2024/02/22 00:55:00;;;;;;;5.40;3.10;;;8.70;1.00;;;;;;5007293;28;20216;-81
2024/02/22 00:57:27;;;;;;;6.60;3.00;;;8.70;1.00;;;;;;5010221;28;20282;-81
2024/02/22 00:59:54;;;;;;;3.70;3.03;;;8.70;1.00;;;;;;5008010;28;20233;-81
2024/02/22 01:02:21;;;;;;;7.10;3.20;;;8.70;1.00;;;;;;5009031;28;20295;-82
2024/02/22 01:04:48;;;;;;;4.57;3.23;;;8.60;1.00;;;;;;5000554;28;20201;-81
2024/02/22 01:07:15;;;;;;;5.37;3.93;;;8.70;99.90;;;;;;5000722;28;20204;-81
2024/02/22 01:09:42;;;;;;;5.57;3.20;;;8.60;99.90;;;;;;5016661;28;20707;-81
2024/02/22 01:12:10;;;;;;;6.97;3.00;;;8.60;1.00;;;;;;5000466;28;20217;-82
2024/02/22 01:14:37;;;;;;;4.80;2.70;;;8.60;1.00;;;;;;5008146;28;20224;-81
2024/02/22 01:17:04;;;;;;;6.80;3.40;;;8.50;1.00;;;;;;5016817;28;20204;-82
2024/02/22 01:19:31;;;;;;;5.63;2.87;;;8.50;99.90;;;;;;5002316;28;20217;-81
2024/02/22 01:21:58;;;;;;;6.97;3.40;;;8.50;99.90;;;;;;4996197;28;20259;-81
2024/02/22 01:24:25;;;;;;;4.67;2.80;;;8.40;1.00;;;;;;5009747;28;20196;-81
2024/02/22 01:26:52;;;;;;;4.07;2.90;;;8.40;1.00;;;;;;4999979;28;20209;-82
2024/02/22 01:29:20;;;;;;;6.07;3.20;;;8.40;1.00;;;;;;4996424;28;20311;-83
2024/02/22 01:31:47;;;;;;;3.87;3.40;;;8.50;99.90;;;;;;4991173;28;20206;-82
2024/02/22 01:34:14;;;;;;;5.23;2.90;;;8.40;1.00;;;;;;4976500;28;20288;-81
2024/02/22 01:36:41;;;;;;;3.23;2.90;;;8.50;85.60;;;;;;4983695;28;20201;-81
2024/02/22 01:39:09;;;;;;;7.70;3.37;;;8.40;99.90;;;;;;5006788;28;20231;-82
2024/02/22 01:41:36;;;;;;;5.37;2.70;;;8.40;1.00;;;;;;5016722;28;20534;-81
2024/02/22 01:44:03;;;;;;;4.23;3.00;;;8.40;1.00;;;;;;5016671;28;20208;-81
2024/02/22 01:46:32;;;;;;;4.23;2.77;;;8.40;1.00;;;;;;5002946;28;20597;-82
2024/02/22 01:48:59;;;;;;;5.20;2.80;;;8.40;1.00;;;;;;4996436;28;20263;-81
2024/02/22 01:51:26;;;;;;;5.43;3.13;;;8.40;1.00;;;;;;4997336;28;20245;-81
2024/02/22 01:53:54;;;;;;;5.07;3.00;;;8.30;1.00;;;;;;4997287;28;20292;-81
2024/02/22 01:56:22;;;;;;;3.97;3.10;;;8.40;99.90;;;;;;5004882;28;20807;-81
2024/02/22 01:58:50;;;;;;;4.23;3.10;;;8.30;1.00;;;;;;4981309;28;20234;-82
2024/02/22 02:01:20;;;;;;;3.80;2.90;;;8.20;1.00;;;;;;4977503;28;20296;-81
2024/02/22 02:03:49;;;;;;;4.93;2.87;;;8.10;1.00;;;;;;4978079;28;20261;-81
2024/02/22 02:06:16;;;;;;;3.40;2.73;;;8.20;1.00;;;;;;4977305;28;20205;-81
2024/02/22 02:08:43;;;;;;;4.93;3.13;;;8.30;1.00;;;;;;4977460;28;20232;-81
2024/02/22 02:11:10;;;;;;;5.67;3.20;;;8.20;99.90;;;;;;4977309;28;20268;-81
2024/02/22 02:13:36;;;;;;;4.13;2.90;;;8.30;73.10;;;;;;4976723;28;20198;-82
2024/02/22 02:16:04;;;;;;;4.67;2.77;;;8.20;99.90;;;;;;4977137;28;20297;-83
2024/02/22 02:18:30;;;;;;;4.07;2.80;;;8.30;99.90;;;;;;4977650;28;20257;-81
2024/02/22 02:21:04;;;;;;;4.40;2.50;;;8.20;99.90;;;;;;4977573;28;20297;-81
2024/02/22 02:23:39;;;;;;;4.83;2.60;;;8.20;99.90;;;;;;5003165;28;20279;-80
2024/02/22 02:26:08;;;;;;;3.00;2.60;;;8.30;99.90;;;;;;4996971;28;20197;-81
2024/02/22 02:28:34;;;;;;;5.87;3.23;;;8.20;99.90;;;;;;4990528;28;20581;-82
2024/02/22 02:31:01;;;;;;;5.73;2.97;;;8.20;99.90;;;;;;4995116;28;20657;-81
2024/02/22 02:33:28;;;;;;;3.00;2.63;;;8.20;99.90;;;;;;4996574;28;20639;-82
2024/02/22 02:35:55;;;;;;;4.23;2.30;;;8.20;99.90;;;;;;4996689;28;20267;-82
2024/02/22 02:38:22;;;;;;;3.57;2.37;;;8.20;99.90;;;;;;4994884;28;20307;-81
2024/02/22 02:40:49;;;;;;;2.47;2.23;;;8.20;99.90;;;;;;4997048;28;20209;-82
2024/02/22 02:43:17;;;;;;;2.60;2.40;;;8.20;99.90;;;;;;5000092;28;20300;-81
2024/02/22 02:45:44;;;;;;;3.40;2.50;;;8.20;99.90;;;;;;5000723;28;20190;-82
2024/02/22 02:48:11;;;;;;;2.47;2.20;;;8.20;99.90;;;;;;5000430;28;20205;-82
2024/02/22 02:50:38;;;;;;;3.17;2.50;;;8.20;99.90;;;;;;5013918;28;20726;-81
2024/02/22 02:53:05;;;;;;;3.13;2.40;;;8.20;99.90;;;;;;5019711;28;20212;-82
2024/02/22 02:55:32;;;;;;;3.10;2.30;;;8.30;99.90;;;;;;5019981;28;20224;-81
2024/02/22 02:58:00;;;;;;;3.13;1.93;;;8.20;99.90;;;;;;5011620;28;20274;-82
2024/02/22 03:00:28;;;;;;;2.67;2.03;;;8.20;99.90;;;;;;5000119;28;20228;-81
2024/02/22 03:02:58;;;;;;;2.77;2.17;;;8.20;99.90;;;;;;5000084;28;20213;-81
2024/02/22 03:05:26;;;;;;;3.63;2.47;;;8.20;99.90;;;;;;4999485;28;20564;-82
2024/02/22 03:07:53;;;;;;;2.23;2.03;;;8.20;99.90;;;;;;4999998;28;20224;-82
2024/02/22 03:10:20;;;;;;;3.73;2.30;;;8.20;99.90;;;;;;4998849;28;20375;-81
2024/02/22 03:12:47;;;;;;;1.70;1.60;;;8.20;99.90;;;;;;5000122;28;20205;-82
2024/02/22 03:15:14;;;;;;;2.40;2.20;;;8.20;99.90;;;;;;5000294;28;20279;-81
2024/02/22 03:17:42;;;;;;;3.17;1.90;;;8.20;99.90;;;;;;5005435;28;20264;-82
2024/02/22 03:20:11;;;;;;;1.97;1.80;;;8.20;99.90;;;;;;5003752;28;20312;-82
2024/02/22 03:22:38;;;;;;;2.43;2.23;;;8.10;99.90;;;;;;5019831;28;20208;-82
2024/02/22 03:25:06;;;;;;;2.17;1.77;;;8.10;99.90;;;;;;5019269;28;20200;-82
2024/02/22 03:27:33;;;;;;;3.23;2.13;;;8.10;99.90;;;;;;5001144;28;20222;-81
2024/02/22 03:30:01;;;;;;;2.57;1.57;;;8.20;99.90;;;;;;5007639;28;20244;-82
2024/02/22 03:32:28;;;;;;;3.43;1.80;;;8.10;99.90;;;;;;5016220;28;20294;-82
2024/02/22 03:34:58;;;;;;;3.73;1.70;;;8.10;99.90;;;;;;5000260;28;20240;-82
2024/02/22 03:37:25;;;;;;;2.60;1.80;;;8.10;99.90;;;;;;5008114;28;20203;-82
2024/02/22 03:39:51;;;;;;;1.60;1.50;;;8.10;99.90;;;;;;4994396;28;20692;-81
2024/02/22 03:42:18;;;;;;;2.53;1.63;;;8.10;99.90;;;;;;4980474;28;20201;-82
2024/02/22 03:44:45;;;;;;;1.47;1.37;;;8.20;99.90;;;;;;4993590;28;20312;-81
2024/02/22 03:47:12;;;;;;;1.60;1.50;;;8.20;99.90;;;;;;5007946;28;20197;-81
2024/02/22 03:49:39;;;;;;;3.27;1.50;;;8.20;99.90;;;;;;4992235;28;20225;-82
2024/02/22 03:52:07;;;;;;;2.70;1.30;;;8.30;99.90;;;;;;4986163;28;20237;-82
2024/02/22 03:54:36;;;;;;;2.30;1.40;;;8.20;99.90;;;;;;4991349;28;20574;-82
2024/02/22 03:57:03;;;;;;;2.27;1.40;;;8.20;99.90;;;;;;4999014;28;20243;-82
2024/02/22 03:59:30;;;;;;;2.53;1.47;;;8.20;99.90;;;;;;4999390;28;20221;-81
2024/02/22 04:01:56;;;;;;;2.70;1.40;;;8.20;99.90;;;;;;5007080;28;20655;-81
2024/02/22 04:04:23;;;;;;;1.83;1.63;;;8.20;99.90;;;;;;5000022;28;20209;-81
2024/02/22 04:06:50;;;;;;;1.10;1.00;;;8.20;99.90;;;;;;4985172;28;20240;-82
2024/02/22 04:09:18;;;;;;;2.43;1.17;;;8.20;99.90;;;;;;4980046;28;20233;-82
2024/02/22 04:11:45;;;;;;;2.27;1.50;;;8.20;99.90;;;;;;5006662;28;20228;-81
2024/02/22 04:14:13;;;;;;;1.00;1.00;;;8.20;99.90;;;;;;5002739;28;20240;-82
2024/02/22 04:16:39;;;;;;;1.83;1.20;;;8.10;99.90;;;;;;5018736;28;20311;-81
2024/02/22 04:19:06;;;;;;;1.20;1.10;;;8.10;99.90;;;;;;5008549;28;20248;-81
2024/02/22 04:21:33;;;;;;;1.30;1.20;;;8.20;99.90;;;;;;4999238;28;20621;-82
2024/02/22 04:24:00;;;;;;;1.13;1.00;;;8.20;99.90;;;;;;4999059;28;20201;-82
2024/02/22 04:26:28;;;;;;;1.40;1.30;;;8.20;99.90;;;;;;5017479;28;20663;-82
2024/02/22 04:28:55;;;;;;;2.13;1.17;;;8.20;99.90;;;;;;5018344;28;20318;-81
2024/02/22 04:31:22;;;;;;;1.30;1.20;;;8.20;99.90;;;;;;5007798;28;20734;-82
2024/02/22 04:33:49;;;;;;;1.30;1.00;;;8.20;99.90;;;;;;4998917;28;20292;-82
2024/02/22 04:36:15;;;;;;;1.20;1.10;;;8.30;99.90;;;;;;4998903;28;20252;-82
2024/02/22 04:38:42;;;;;;;1.17;1.00;;;8.20;99.90;;;;;;5011567;28;20270;-82
2024/02/22 04:41:20;;;;;;;0.80;0.80;;;8.30;99.90;;;;;;4994095;28;20607;-82
2024/02/22 04:43:48;;;;;;;0.97;0.80;;;8.30;99.90;;;;;;4979739;28;20217;-82
2024/02/22 04:46:15;;;;;;;3.23;1.10;;;8.30;99.90;;;;;;4997224;28;20197;-82
2024/02/22 04:48:42;;;;;;;0.87;0.83;;;8.30;99.90;;;;;;4999127;28;20256;-82
2024/02/22 04:51:09;;;;;;;2.07;0.70;;;8.30;99.90;;;;;;5000224;28;20224;-81
2024/02/22 04:53:37;;;;;;;1.63;1.07;;;8.30;99.90;;;;;;5004232;28;20211;-81
2024/02/22 04:56:04;;;;;;;0.90;0.70;;;8.30;99.90;;;;;;5018556;28;20228;-81
2024/02/22 04:58:32;;;;;;;1.00;0.93;;;8.30;99.90;;;;;;5017855;28;20232;-81
2024/02/22 05:01:00;;;;;;;1.13;1.03;;;8.30;99.90;;;;;;5001509;28;20204;-82
2024/02/22 05:03:27;;;;;;;0.80;0.60;;;8.30;99.90;;;;;;4998062;28;20233;-82
2024/02/22 05:05:53;;;;;;;0.70;0.70;;;8.30;99.90;;;;;;4981451;28;20671;-81
2024/02/22 05:08:23;;;;;;;0.70;0.70;;;8.30;99.90;;;;;;4999510;28;20289;-81
2024/02/22 05:10:50;;;;;;;0.73;0.73;;;8.30;99.90;;;;;;5003418;28;20565;-82
2024/02/22 05:13:17;;;;;;;0.70;0.70;;;8.30;99.90;;;;;;4994739;28;20292;-82
2024/02/22 05:15:43;;;;;;;0.60;0.60;;;8.30;99.90;;;;;;4998187;28;20284;-81
2024/02/22 05:18:12;;;;;;;1.87;0.70;;;8.30;99.90;;;;;;4986824;28;20232;-82
2024/02/22 05:20:39;;;;;;;0.70;0.70;;;8.30;99.90;;;;;;4977996;28;20296;-82
2024/02/22 05:23:07;;;;;;;1.20;0.67;;;8.20;99.90;;;;;;4979872;28;20205;-82
2024/02/22 05:25:34;;;;;;;2.10;0.60;;;8.30;99.90;;;;;;4997593;28;20628;-82
2024/02/22 05:28:01;;;;;;;1.67;0.73;;;8.20;99.90;;;;;;4997505;28;20260;-81
2024/02/22 05:30:28;;;;;;;1.17;0.60;;;8.30;99.90;;;;;;4987753;28;20288;-81
2024/02/22 05:32:56;;;;;;;0.50;0.50;;;8.30;99.90;;;;;;4997803;28;20205;-82
2024/02/22 05:35:24;;;;;;;1.60;0.50;;;8.30;99.90;;;;;;4997061;28;20216;-82
2024/02/22 05:37:51;;;;;;;0.50;0.50;;;8.30;99.90;;;;;;4997638;28;20328;-81
2024/02/22 05:40:18;;;;;;;0.97;0.50;;;8.30;99.90;;;;;;4997729;28;20692;-81
2024/02/22 05:42:44;;;;;;;1.13;0.80;;;8.30;99.90;;;;;;5009881;28;20196;-82
2024/02/22 05:45:11;;;;;;;0.97;0.33;;;8.20;99.90;;;;;;5008840;28;20204;-81
2024/02/22 05:47:38;;;;;;;0.57;0.43;;;8.20;99.90;;;;;;4997452;28;20251;-81
2024/02/22 05:50:09;;;;;;;0.50;0.50;;;8.20;99.90;;;;;;4988698;28;20231;-81
2024/02/22 05:52:37;;;;;;;0.87;0.87;;;8.20;99.90;;;;;;4998757;28;20640;-81
2024/02/22 05:55:06;;;;;;;0.40;0.40;;;8.20;99.90;;;;;;5007978;28;20197;-82
2024/02/22 05:57:33;;;;;;;0.43;0.40;;;8.20;99.90;;;;;;4986501;28;20239;-81
2024/02/22 05:59:59;;;;;;;2.13;0.50;;;8.20;99.90;;;;;;5011026;28;20788;-82
2024/02/22 06:02:26;;;;;;;3.00;0.70;;;8.30;99.90;;;;;;5003095;28;20287;-82
2024/02/22 06:04:54;;;;;;;0.67;0.67;;;8.20;99.90;;;;;;5003714;28;20209;-81
2024/02/22 06:07:20;;;;;;;0.40;0.40;;;8.20;99.90;;;;;;4991524;28;20268;-82
2024/02/22 06:09:50;;;;;;;0.77;0.57;;;8.20;99.90;;;;;;4983143;28;20572;-81
2024/02/22 06:12:17;;;;;;;0.70;0.43;;;8.30;99.90;;;;;;4993336;28;20208;-82
2024/02/22 06:14:43;;;;;;;1.07;0.53;;;8.30;99.90;;;;;;4993763;28;20292;-82
2024/02/22 06:17:10;;;;;;;1.27;0.50;;;8.30;99.90;;;;;;5008147;28;20213;-82
2024/02/22 06:19:39;;;;;;;0.53;0.50;;;8.30;99.90;;;;;;5019766;28;20690;-82
2024/02/22 06:22:05;;;;;;;1.90;0.43;;;8.30;99.90;;;;;;5003487;28;20682;-82
2024/02/22 06:24:32;;;;;;;0.20;0.20;;;8.30;99.90;;;;;;5001506;28;20205;-82
2024/02/22 06:27:00;;;;;;;0.73;0.40;;;8.30;99.90;;;;;;5020887;28;20721;-81
2024/02/22 06:29:28;;;;;;;0.97;0.57;;;8.20;99.90;;;;;;5000945;28;20555;-81
2024/02/22 06:31:54;;;;;;;0.40;0.40;;;8.20;99.90;;;;;;5005992;28;20196;-82
2024/02/22 06:34:21;;;;;;;0.30;0.30;;;8.30;99.90;;;;;;5020704;28;20266;-81
2024/02/22 06:36:48;;;;;;;0.97;0.57;;;8.20;99.90;;;;;;5015063;28;20228;-81
2024/02/22 06:39:15;;;;;;;0.57;0.30;;;8.30;99.90;;;;;;5001163;28;20291;-81
2024/02/22 06:41:42;;;;;;;0.67;0.50;;;8.30;99.90;;;;;;5001237;28;20204;-81
2024/02/22 06:44:10;;;;;;;1.50;0.67;;;8.30;99.90;;;;;;5007110;28;20208;-81
2024/02/22 06:46:37;;;;;;;0.30;0.30;;;8.30;99.90;;;;;;5018254;28;20196;-81
2024/02/22 06:49:05;;;;;;;0.40;0.30;;;8.30;99.90;;;;;;5018212;28;20234;-82
2024/02/22 06:51:31;;;;;;;2.73;0.40;;;8.30;99.90;;;;;;5008971;28;20576;-82
2024/02/22 06:53:59;;;;;;;1.73;0.50;;;8.30;99.90;;;;;;5004540;28;20287;-81
2024/02/22 06:56:25;;;;;;;0.67;0.23;;;8.30;99.90;;;;;;4992837;28;20229;-82
2024/02/22 06:58:52;;;;;;;0.30;0.30;;;8.30;99.90;;;;;;4980404;28;20772;-81
2024/02/22 07:01:20;;;;;;;0.20;0.20;;;8.40;99.90;;;;;;5004375;28;20239;-82
2024/02/22 07:03:47;;;;;;;1.23;0.20;;;8.30;99.90;;;;;;5019827;28;20232;-82
2024/02/22 07:06:15;;;;;;;1.60;0.27;;;8.30;99.90;;;;;;5000192;28;20190;-81
2024/02/22 07:08:42;;;;;;;0.70;0.50;;;8.30;99.90;;;;;;4981239;28;20314;-81
2024/02/22 07:11:13;;;;;;;0.23;0.23;;;8.30;99.90;;;;;;4980714;28;20244;-81
2024/02/22 07:13:40;;;;;;;0.30;0.20;;;8.30;99.90;;;;;;5006486;28;20234;-80
2024/02/22 07:16:08;;;;;;;0.40;0.40;;;8.40;99.90;;;;;;4999620;28;20256;-81
2024/02/22 07:18:36;;;;;;;1.43;0.30;;;8.40;99.90;;;;;;4981066;28;20289;-81
2024/02/22 07:21:03;;;;;;;1.67;0.40;;;8.40;99.90;;;;;;4981543;28;20210;-81
2024/02/22 07:23:30;;;;;;;0.40;0.30;;;8.50;99.90;;;;;;5012636;28;20722;-82
2024/02/22 07:25:57;;;;;;;0.20;0.20;;;8.50;99.90;;;;;;5012219;28;20264;-82
2024/02/22 07:28:24;;;;;;;0.30;0.30;;;8.50;99.90;;;;;;5018105;28;20319;-82
2024/02/22 07:30:51;;;;;;;0.63;0.30;;;8.50;99.90;;;;;;5007046;28;20304;-82
2024/02/22 07:33:18;;;;;;;0.97;0.30;;;8.50;99.90;;;;;;4999287;28;20205;-82
2024/02/22 07:35:46;;;;;;;0.47;0.20;;;8.60;99.90;;;;;;4998981;28;20211;-82
2024/02/22 07:38:13;;;;;;;0.20;0.20;;;8.60;99.90;;;;;;4999996;28;20319;-81
2024/02/22 07:40:43;;;;;;;2.13;0.13;;;8.60;99.90;;;;;;5002225;28;20205;-82
2024/02/22 07:43:10;;;;;;;2.17;0.20;;;8.60;99.90;;;;;;5019157;28;20246;-81
2024/02/22 07:45:38;;;;;;;0.50;0.40;;;8.60;99.90;;;;;;5018959;28;20222;-81
2024/02/22 07:48:08;;;;;;;0.67;0.30;;;8.60;99.90;;;;;;5020058;28;20206;-81
2024/02/22 07:50:35;;;;;;;2.37;0.83;;;8.60;99.90;;;;;;5001560;28;20217;-82
2024/02/22 07:53:04;;;;;;;2.50;0.37;;;8.60;99.90;;;;;;5000101;28;20295;-82
2024/02/22 07:55:31;;;;;;;0.57;0.47;;;8.60;99.90;;;;;;4999172;28;20213;-82
2024/02/22 07:57:58;;;;;;;0.47;0.10;;;8.70;99.90;;;;;;5000441;28;20221;-82
2024/02/22 08:00:26;;;;;;;0.60;0.27;;;8.70;99.90;;;;;;5000235;28;20231;-81
2024/02/22 08:02:53;;;;;;;0.40;0.40;;;8.70;99.90;;;;;;4997945;28;20324;-82
2024/02/22 08:05:20;;;;;;;1.43;0.40;;;8.80;99.90;;;;;;5012776;28;20207;-82
2024/02/22 08:07:47;;;;;;;0.63;0.30;;;8.80;99.90;;;;;;5019120;28;20235;-82
2024/02/22 08:10:17;;;;;;;0.40;0.30;;;8.80;99.90;;;;;;5012363;28;20232;-82
2024/02/22 08:12:43;;;;;;;1.60;0.57;;;8.80;99.90;;;;;;5004422;28;20209;-81
2024/02/22 08:15:10;;;;;;;0.40;0.30;;;8.90;99.90;;;;;;4999017;28;20201;-82
2024/02/22 08:17:40;;;;;;;1.90;0.57;;;9.10;99.90;;;;;;4998955;28;20224;-82
2024/02/22 08:20:08;;;;;;;1.37;0.40;;;8.90;99.90;;;;;;4999874;28;20248;-82
2024/02/22 08:22:35;;;;;;;2.70;0.53;;;9.00;99.90;;;;;;4999453;28;20233;-82
2024/02/22 08:25:02;;;;;;;2.70;0.40;;;9.00;99.90;;;;;;4999135;28;20212;-81
2024/02/22 08:27:30;;;;;;;0.57;0.53;;;9.00;99.90;;;;;;4999264;28;20209;-82
2024/02/22 08:29:57;;;;;;;0.50;0.47;;;9.00;99.90;;;;;;5002514;28;20248;-82
2024/02/22 08:32:23;;;;;;;1.87;0.70;;;9.00;99.90;;;;;;4999446;28;20255;-82
2024/02/22 08:34:50;;;;;;;1.37;0.87;;;9.10;99.90;;;;;;4999388;28;20243;-82
2024/02/22 08:37:17;;;;;;;0.93;0.60;;;9.20;99.90;;;;;;4998650;28;20307;-82
2024/02/22 08:39:44;;;;;;;0.57;0.40;;;9.20;99.90;;;;;;5006073;28;20618;-82
2024/02/22 08:42:11;;;;;;;1.73;0.60;;;9.20;99.90;;;;;;4998808;28;20219;-82
2024/02/22 08:44:39;;;;;;;1.30;0.60;;;9.20;99.90;;;;;;4998654;28;20236;-82
2024/02/22 08:47:09;;;;;;;1.90;1.13;;;9.20;99.90;;;;;;4997901;28;20208;-82
2024/02/22 08:49:35;;;;;;;1.27;1.03;;;9.20;99.90;;;;;;4998821;28;20225;-81
2024/02/22 08:52:04;;;;;;;0.60;0.50;;;9.20;99.90;;;;;;5003368;28;20204;-81
2024/02/22 08:54:31;;;;;;;0.60;0.60;;;9.20;99.90;;;;;;5009263;28;20355;-82
2024/02/22 08:56:57;;;;;;;0.53;0.53;;;9.20;99.90;;;;;;5010566;28;20252;-82
2024/02/22 08:59:24;;;;;;;0.57;0.40;;;9.30;99.90;;;;;;5003135;28;20751;-82
2024/02/22 09:01:53;;;;;;;0.60;0.60;;;9.30;99.90;;;;;;4988012;28;20220;-82
2024/02/22 09:04:20;;;;;;;1.63;0.53;;;9.30;99.90;;;;;;4979595;28;20209;-82
2024/02/22 09:06:47;;;;;;;2.27;0.50;;;9.30;99.90;;;;;;4981207;28;20617;-82
2024/02/22 09:09:14;;;;;;;0.80;0.70;;;9.40;99.90;;;;;;4978961;28;20225;-81
2024/02/22 09:11:41;;;;;;;0.93;0.67;;;9.50;99.90;;;;;;4982921;28;20209;-82
2024/02/22 09:14:07;;;;;;;1.67;0.90;;;9.40;99.90;;;;;;5011008;28;20607;-82
2024/02/22 09:16:34;;;;;;;0.70;0.60;;;9.50;99.90;;;;;;5004878;28;20644;-82
2024/02/22 09:19:02;;;;;;;0.60;0.60;;;9.60;99.90;;;;;;4979422;28;20265;-81
2024/02/22 09:21:30;;;;;;;1.40;0.40;;;9.80;99.90;;;;;;4999498;28;20611;-82
2024/02/22 09:23:57;;;;;;;0.77;0.60;;;9.80;99.90;;;;;;4999390;28;20660;-81
2024/02/22 09:26:24;;;;;;;0.50;0.50;;;10.00;99.90;;;;;;4998901;28;20220;-82
2024/02/22 09:28:51;;;;;;;0.60;0.50;;;10.20;99.90;;;;;;5008713;28;20234;-82
2024/02/22 09:31:17;;;;;;;0.70;0.70;;;10.20;99.90;;;;;;4999656;28;20276;-82
2024/02/22 09:33:44;;;;;;;0.63;0.63;;;10.20;99.90;;;;;;4998458;28;20201;-82
2024/02/22 09:36:13;;;;;;;0.70;0.70;;;10.40;99.90;;;;;;4998756;28;20200;-82
2024/02/22 09:38:40;;;;;;;1.07;0.90;;;10.30;99.90;;;;;;5011344;28;20256;-82
2024/02/22 09:41:08;;;;;;;0.60;0.50;;;10.40;99.90;;;;;;4998779;28;20255;-82
2024/02/22 09:43:36;;;;;;;0.83;0.70;;;10.30;99.90;;;;;;5011565;28;20212;-83
2024/02/22 09:46:03;;;;;;;0.90;0.53;;;10.40;99.90;;;;;;4998246;28;20267;-82
2024/02/22 09:48:29;;;;;;;0.63;0.63;;;10.40;99.90;;;;;;4997495;28;20770;-82
2024/02/22 09:50:58;;;;;;;0.57;0.57;;;10.40;99.90;;;;;;4998591;28;20239;-81
2024/02/22 09:53:28;;;;;;;1.03;0.50;;;10.50;99.90;;;;;;5012174;28;20291;-82
2024/02/22 09:55:55;;;;;;;1.00;0.67;;;10.40;99.90;;;;;;5007429;28;20201;-82
2024/02/22 09:58:22;;;;;;;0.47;0.47;;;10.40;99.90;;;;;;4983248;28;20225;-81
2024/02/22 10:00:52;;;;;;;0.60;0.60;;;10.50;99.90;;;;;;4977994;28;20292;-82
2024/02/22 10:03:29;;;;;;;1.67;0.60;;;10.60;99.90;;;;;;5005077;28;20205;-83
2024/02/22 10:05:56;;;;;;;0.50;0.50;;;10.70;99.90;;;;;;4997552;28;20189;-82
2024/02/22 10:08:25;;;;;;;0.50;0.50;;;10.70;99.90;;;;;;4995354;28;20209;-82
2024/02/22 10:10:55;;;;;;;0.60;0.60;;;10.70;99.90;;;;;;4998088;28;20243;-82
2024/02/22 10:13:22;;;;;;;0.70;0.70;;;10.80;99.90;;;;;;5011922;28;20200;-82
2024/02/22 10:15:50;;;;;;;1.70;0.57;;;10.90;99.90;;;;;;4993308;28;20577;-82
2024/02/22 10:18:25;;;;;;;0.80;0.60;;;10.80;99.90;;;;;;4996057;28;20224;-82
2024/02/22 10:20:52;;;;;;;0.97;0.87;;;10.80;99.90;;;;;;4997553;28;20189;-81
2024/02/22 10:23:20;;;;;;;0.57;0.57;;;10.90;99.90;;;;;;4997790;28;20687;-82
2024/02/22 10:25:49;;;;;;;1.77;0.77;;;10.90;99.90;;;;;;5000144;28;20264;-83
2024/02/22 10:28:16;;;;;;;1.30;0.77;;;11.00;99.90;;;;;;4997532;28;20219;-82
2024/02/22 10:30:44;;;;;;;0.73;0.70;;;11.10;99.90;;;;;;4997655;28;20213;-83
2024/02/22 10:33:12;;;;;;;0.80;0.70;;;11.20;99.90;;;;;;4997188;28;20292;-82
2024/02/22 10:35:40;;;;;;;2.73;0.90;;;11.20;99.90;;;;;;4994675;28;20303;-82
2024/02/22 10:38:09;;;;;;;1.00;0.90;;;11.30;99.90;;;;;;4978204;28;20648;-82
2024/02/22 10:40:36;;;;;;;0.80;0.80;;;11.40;99.90;;;;;;4977653;28;20553;-83
2024/02/22 10:43:07;;;;;;;0.67;0.67;;;11.60;99.90;;;;;;4996788;28;20207;-83
2024/02/22 10:45:36;;;;;;;0.63;0.63;;;11.80;99.90;;;;;;4998067;28;20263;-81
2024/02/22 10:48:07;;;;;;;0.50;0.50;;;11.90;2.70;;;;;;5001813;28;20268;-83
2024/02/22 10:50:35;;;;;;;0.50;0.50;;;11.90;99.90;;;;;;4980711;28;20221;-82
2024/02/22 10:53:04;;;;;;;0.50;0.50;;;12.00;99.90;;;;;;5001405;28;20236;-81
2024/02/22 10:55:35;;;;;;;1.30;0.40;;;12.30;1.00;;;;;;5002681;28;20208;-81
2024/02/22 10:58:05;;;;;;;1.70;0.60;;;12.60;1.00;;;;;;4997577;28;20257;-81
2024/02/22 11:00:34;;;;;;;0.30;0.30;;;12.60;1.00;;;;;;4997510;28;20209;-81
2024/02/22 11:03:02;;;;;;;0.40;0.40;;;12.40;1.00;;;;;;4998291;28;20228;-82
2024/02/22 11:05:36;;;;;;;0.30;0.30;;;12.30;1.00;;;;;;5000639;28;20201;-82
2024/02/22 11:08:04;;;;;;;1.60;0.50;;;12.30;1.00;;;;;;5001114;28;20205;-82
2024/02/22 11:10:31;;;;;;;0.40;0.40;;;12.50;99.90;;;;;;5000861;28;20272;-83
2024/02/22 11:13:03;;;;;;;0.43;0.43;;;12.60;9.30;;;;;;4999922;28;20197;-83
2024/02/22 11:15:35;;;;;;;0.77;0.40;;;12.90;1.00;;;;;;4999689;28;20280;-82
2024/02/22 11:18:03;;;;;;;0.40;0.40;;;12.90;1.00;;;;;;5000466;28;20211;-84
2024/02/22 11:20:31;;;;;;;0.83;0.40;;;12.80;94.10;;;;;;4991705;28;20216;-83
2024/02/22 11:22:58;;;;;;;0.30;0.30;;;12.70;1.00;;;;;;5018970;28;20200;-82
2024/02/22 11:25:25;;;;;;;0.53;0.40;;;12.80;99.90;;;;;;5019513;28;20254;-82
2024/02/22 11:27:59;;;;;;;0.40;0.40;;;12.70;99.90;;;;;;5019209;28;20265;-82
2024/02/22 11:30:27;;;;;;;0.50;0.50;;;12.70;99.90;;;;;;5014236;28;20228;-82
2024/02/22 11:32:55;;;;;;;0.50;0.50;;;12.90;85.90;;;;;;5000542;28;20209;-82
2024/02/22 11:35:23;;;;;;;0.53;0.50;;;13.00;1.00;;;;;;5000233;28;20205;-81
2024/02/22 11:37:57;;;;;;;0.70;0.60;;;12.90;1.00;;;;;;5000847;28;20247;-83
2024/02/22 11:40:25;;;;;;;0.30;0.30;;;12.70;1.00;;;;;;4999416;28;20235;-82
2024/02/22 11:42:55;;;;;;;0.30;0.30;;;12.70;1.00;;;;;;5000756;28;20201;-83
2024/02/22 11:45:22;;;;;;;0.70;0.43;;;12.70;1.00;;;;;;5003853;28;20197;-83
2024/02/22 11:47:50;;;;;;;0.63;0.30;;;12.50;99.90;;;;;;4981217;28;20206;-83
2024/02/22 11:50:19;;;;;;;0.67;0.40;;;12.60;99.90;;;;;;4981768;28;20217;-82
2024/02/22 11:52:47;;;;;;;0.33;0.33;;;12.80;99.90;;;;;;4997506;28;20204;-82
2024/02/22 11:55:14;;;;;;;0.23;0.23;;;13.00;99.90;;;;;;5017005;28;20697;-82
2024/02/22 11:57:41;;;;;;;0.30;0.30;;;13.10;45.70;;;;;;5020623;28;20208;-82
2024/02/22 12:00:09;;;;;;;1.10;0.40;;;13.50;99.90;;;;;;5020043;28;20319;-82
2024/02/22 12:02:37;;;;;;;0.28;0.28;;;14.10;1.00;;;;;;5019333;28;20287;-83
2024/02/22 12:05:06;;;;;;;0.30;0.30;;;14.20;1.00;;;;;;4982256;28;20233;-82
2024/02/22 12:07:35;;;;;;;0.50;0.45;;;14.70;1.00;;;;;;4996965;28;20251;-83
2024/02/22 12:10:03;;;;;;;1.55;0.32;;;14.40;1.00;;;;;;5001085;28;20229;-83
2024/02/22 12:12:32;;;;;;;0.20;0.20;;;14.50;99.90;;;;;;5000625;28;20211;-82
2024/02/22 12:14:59;;;;;;;1.30;0.30;;;14.60;99.90;;;;;;5006739;28;20225;-82
2024/02/22 12:17:27;;;;;;;0.30;0.30;;;14.70;99.90;;;;;;4985217;28;20197;-83
2024/02/22 12:19:54;;;;;;;0.55;0.30;;;14.90;99.90;;;;;;4999901;28;20287;-83
2024/02/22 12:22:21;;;;;;;0.43;0.35;;;15.00;99.90;;;;;;5000033;28;20668;-82
2024/02/22 12:24:50;;;;;;;0.28;0.28;;;14.60;18.30;;;;;;5000388;28;20549;-82
2024/02/22 12:27:17;;;;;;;0.40;0.30;;;14.40;99.90;;;;;;4999813;28;20243;-82
2024/02/22 12:29:44;;;;;;;0.30;0.30;;;14.10;78.00;;;;;;5000240;28;20746;-82
2024/02/22 12:32:13;;;;;;;1.45;0.35;;;14.00;99.90;;;;;;4991166;28;20214;-83
2024/02/22 12:34:40;;;;;;;0.22;0.20;;;13.80;99.90;;;;;;4979801;28;20205;-82
2024/02/22 12:37:07;;;;;;;0.20;0.20;;;13.70;99.90;;;;;;4982707;28;20245;-83
2024/02/22 12:39:34;;;;;;;0.22;0.22;;;13.50;99.90;;;;;;5002452;28;20320;-83
2024/02/22 12:42:02;;;;;;;0.17;0.17;;;13.30;99.90;;;;;;5002100;28;20236;-82
2024/02/22 12:44:29;;;;;;;0.20;0.20;;;13.20;99.90;;;;;;4999682;28;20212;-83
2024/02/22 12:46:58;;;;;;;0.50;0.20;;;13.40;99.90;;;;;;5000020;28;20268;-82
2024/02/22 12:49:25;;;;;;;1.60;0.43;;;13.30;1.00;;;;;;4999668;28;20227;-82
2024/02/22 12:51:52;;;;;;;0.30;0.30;;;13.20;99.90;;;;;;5000588;28;20216;-83
2024/02/22 12:54:24;;;;;;;0.20;0.20;;;13.00;99.90;;;;;;5002029;28;20206;-82
2024/02/22 12:56:51;;;;;;;0.40;0.30;;;12.90;99.90;;;;;;5019499;28;20634;-81